sensor_id;sensor_type;location;lat;lon;timestamp;P1;durP1;ratioP1;P2;durP2;ratioP2
17864;SDS011;9058;52.018;4.202;2022-09-09T00:02:04;10.63;;;7.72;;
17864;SDS011;9058;52.018;4.202;2022-09-09T00:04:35;10.68;;;7.78;;
17864;SDS011;9058;52.018;4.202;2022-09-09T00:07:03;10.82;;;8.68;;
17864;SDS011;9058;52.018;4.202;2022-09-09T00:09:33;15.00;;;9.10;;
17864;SDS011;9058;52.018;4.202;2022-09-09T00:12:05;15.63;;;9.23;;
17864;SDS011;9058;52.018;4.202;2022-09-09T00:14:37;13.98;;;10.13;;
17864;SDS011;9058;52.018;4.202;2022-09-09T00:17:08;14.32;;;9.82;;
17864;SDS011;9058;52.018;4.202;2022-09-09T00:19:37;14.98;;;10.80;;
17864;SDS011;9058;52.018;4.202;2022-09-09T00:22:12;13.60;;;11.50;;
17864;SDS011;9058;52.018;4.202;2022-09-09T00:24:42;15.10;;;13.25;;
17864;SDS011;9058;52.018;4.202;2022-09-09T00:27:11;17.02;;;14.90;;
17864;SDS011;9058;52.018;4.202;2022-09-09T00:29:41;17.67;;;15.13;;
17864;SDS011;9058;52.018;4.202;2022-09-09T00:32:13;22.25;;;17.70;;
17864;SDS011;9058;52.018;4.202;2022-09-09T00:34:43;22.60;;;18.98;;
17864;SDS011;9058;52.018;4.202;2022-09-09T00:37:10;25.58;;;19.58;;
17864;SDS011;9058;52.018;4.202;2022-09-09T00:39:40;25.08;;;20.02;;
17864;SDS011;9058;52.018;4.202;2022-09-09T00:42:12;22.65;;;18.58;;
17864;SDS011;9058;52.018;4.202;2022-09-09T00:44:42;26.15;;;17.40;;
17864;SDS011;9058;52.018;4.202;2022-09-09T00:47:19;23.38;;;17.10;;
17864;SDS011;9058;52.018;4.202;2022-09-09T00:49:54;21.65;;;16.05;;
17864;SDS011;9058;52.018;4.202;2022-09-09T00:52:29;23.17;;;16.50;;
17864;SDS011;9058;52.018;4.202;2022-09-09T00:55:01;23.08;;;15.70;;
17864;SDS011;9058;52.018;4.202;2022-09-09T00:57:30;23.00;;;16.45;;
17864;SDS011;9058;52.018;4.202;2022-09-09T00:59:58;21.02;;;16.20;;
17864;SDS011;9058;52.018;4.202;2022-09-09T01:02:28;22.92;;;15.95;;
17864;SDS011;9058;52.018;4.202;2022-09-09T01:04:57;18.33;;;14.82;;
17864;SDS011;9058;52.018;4.202;2022-09-09T01:07:28;22.10;;;15.02;;
17864;SDS011;9058;52.018;4.202;2022-09-09T01:09:55;19.77;;;14.80;;
17864;SDS011;9058;52.018;4.202;2022-09-09T01:12:24;20.25;;;14.30;;
17864;SDS011;9058;52.018;4.202;2022-09-09T01:14:53;20.25;;;13.38;;
17864;SDS011;9058;52.018;4.202;2022-09-09T01:17:22;21.80;;;14.35;;
17864;SDS011;9058;52.018;4.202;2022-09-09T01:19:57;16.85;;;12.23;;
17864;SDS011;9058;52.018;4.202;2022-09-09T01:22:30;15.75;;;10.77;;
17864;SDS011;9058;52.018;4.202;2022-09-09T01:25:13;16.92;;;9.43;;
17864;SDS011;9058;52.018;4.202;2022-09-09T01:27:44;13.60;;;9.70;;
17864;SDS011;9058;52.018;4.202;2022-09-09T01:30:13;18.02;;;8.73;;
17864;SDS011;9058;52.018;4.202;2022-09-09T01:32:41;13.82;;;7.90;;
17864;SDS011;9058;52.018;4.202;2022-09-09T01:35:08;11.98;;;8.48;;
17864;SDS011;9058;52.018;4.202;2022-09-09T01:37:35;16.33;;;8.98;;
17864;SDS011;9058;52.018;4.202;2022-09-09T01:40:02;13.43;;;9.38;;
17864;SDS011;9058;52.018;4.202;2022-09-09T01:42:28;14.93;;;10.25;;
17864;SDS011;9058;52.018;4.202;2022-09-09T01:44:56;14.05;;;9.70;;
17864;SDS011;9058;52.018;4.202;2022-09-09T01:47:23;13.90;;;10.00;;
17864;SDS011;9058;52.018;4.202;2022-09-09T01:49:49;12.85;;;9.52;;
17864;SDS011;9058;52.018;4.202;2022-09-09T01:52:16;17.05;;;8.95;;
17864;SDS011;9058;52.018;4.202;2022-09-09T01:54:42;15.15;;;8.35;;
17864;SDS011;9058;52.018;4.202;2022-09-09T01:57:10;9.10;;;7.28;;
17864;SDS011;9058;52.018;4.202;2022-09-09T01:59:43;11.30;;;7.07;;
17864;SDS011;9058;52.018;4.202;2022-09-09T02:02:16;9.15;;;6.15;;
17864;SDS011;9058;52.018;4.202;2022-09-09T02:04:43;10.52;;;6.50;;
17864;SDS011;9058;52.018;4.202;2022-09-09T02:07:14;10.15;;;7.10;;
17864;SDS011;9058;52.018;4.202;2022-09-09T02:09:46;8.15;;;6.50;;
17864;SDS011;9058;52.018;4.202;2022-09-09T02:12:13;10.95;;;7.20;;
17864;SDS011;9058;52.018;4.202;2022-09-09T02:14:41;11.52;;;6.47;;
17864;SDS011;9058;52.018;4.202;2022-09-09T02:17:08;6.90;;;6.25;;
17864;SDS011;9058;52.018;4.202;2022-09-09T02:19:37;10.45;;;6.03;;
17864;SDS011;9058;52.018;4.202;2022-09-09T02:22:05;8.50;;;4.88;;
17864;SDS011;9058;52.018;4.202;2022-09-09T02:24:32;4.63;;;3.35;;
17864;SDS011;9058;52.018;4.202;2022-09-09T02:26:59;7.43;;;3.17;;
17864;SDS011;9058;52.018;4.202;2022-09-09T02:29:28;8.45;;;2.95;;
17864;SDS011;9058;52.018;4.202;2022-09-09T02:31:55;6.60;;;3.33;;
17864;SDS011;9058;52.018;4.202;2022-09-09T02:34:24;7.45;;;3.15;;
17864;SDS011;9058;52.018;4.202;2022-09-09T02:36:54;9.95;;;3.30;;
17864;SDS011;9058;52.018;4.202;2022-09-09T02:39:23;6.93;;;3.15;;
17864;SDS011;9058;52.018;4.202;2022-09-09T02:41:49;7.53;;;3.58;;
17864;SDS011;9058;52.018;4.202;2022-09-09T02:44:18;8.07;;;3.15;;
17864;SDS011;9058;52.018;4.202;2022-09-09T02:46:49;6.63;;;3.22;;
17864;SDS011;9058;52.018;4.202;2022-09-09T02:49:18;14.27;;;3.85;;
17864;SDS011;9058;52.018;4.202;2022-09-09T02:51:51;9.15;;;3.30;;
17864;SDS011;9058;52.018;4.202;2022-09-09T02:54:23;7.35;;;3.60;;
17864;SDS011;9058;52.018;4.202;2022-09-09T02:56:53;8.82;;;3.58;;
17864;SDS011;9058;52.018;4.202;2022-09-09T02:59:21;6.30;;;3.67;;
17864;SDS011;9058;52.018;4.202;2022-09-09T03:01:47;7.07;;;3.35;;
17864;SDS011;9058;52.018;4.202;2022-09-09T03:04:14;6.15;;;3.10;;
17864;SDS011;9058;52.018;4.202;2022-09-09T03:06:40;8.77;;;3.25;;
17864;SDS011;9058;52.018;4.202;2022-09-09T03:09:06;5.88;;;3.28;;
17864;SDS011;9058;52.018;4.202;2022-09-09T03:11:36;8.20;;;3.45;;
17864;SDS011;9058;52.018;4.202;2022-09-09T03:14:03;7.82;;;3.70;;
17864;SDS011;9058;52.018;4.202;2022-09-09T03:16:30;8.43;;;3.20;;
17864;SDS011;9058;52.018;4.202;2022-09-09T03:18:58;6.47;;;2.80;;
17864;SDS011;9058;52.018;4.202;2022-09-09T03:21:25;6.60;;;3.30;;
17864;SDS011;9058;52.018;4.202;2022-09-09T03:23:51;7.95;;;3.28;;
17864;SDS011;9058;52.018;4.202;2022-09-09T03:26:18;9.40;;;4.03;;
17864;SDS011;9058;52.018;4.202;2022-09-09T03:28:46;5.60;;;3.40;;
17864;SDS011;9058;52.018;4.202;2022-09-09T03:31:14;5.63;;;3.30;;
17864;SDS011;9058;52.018;4.202;2022-09-09T03:33:43;9.50;;;3.97;;
17864;SDS011;9058;52.018;4.202;2022-09-09T03:36:10;5.95;;;2.88;;
17864;SDS011;9058;52.018;4.202;2022-09-09T03:38:37;8.18;;;3.30;;
17864;SDS011;9058;52.018;4.202;2022-09-09T03:41:03;6.50;;;2.75;;
17864;SDS011;9058;52.018;4.202;2022-09-09T03:43:33;9.38;;;3.25;;
17864;SDS011;9058;52.018;4.202;2022-09-09T03:46:00;10.30;;;3.42;;
17864;SDS011;9058;52.018;4.202;2022-09-09T03:48:27;6.57;;;3.15;;
17864;SDS011;9058;52.018;4.202;2022-09-09T03:50:54;8.75;;;3.30;;
17864;SDS011;9058;52.018;4.202;2022-09-09T03:53:23;7.88;;;3.90;;
17864;SDS011;9058;52.018;4.202;2022-09-09T03:55:50;6.07;;;2.60;;
17864;SDS011;9058;52.018;4.202;2022-09-09T03:58:19;7.60;;;3.67;;
17864;SDS011;9058;52.018;4.202;2022-09-09T04:00:52;9.77;;;3.25;;
17864;SDS011;9058;52.018;4.202;2022-09-09T04:03:20;9.63;;;3.33;;
17864;SDS011;9058;52.018;4.202;2022-09-09T04:05:48;6.30;;;2.95;;
17864;SDS011;9058;52.018;4.202;2022-09-09T04:08:14;9.00;;;3.50;;
17864;SDS011;9058;52.018;4.202;2022-09-09T04:10:41;8.70;;;3.30;;
17864;SDS011;9058;52.018;4.202;2022-09-09T04:13:07;6.03;;;3.38;;
17864;SDS011;9058;52.018;4.202;2022-09-09T04:15:33;8.05;;;3.38;;
17864;SDS011;9058;52.018;4.202;2022-09-09T04:18:00;8.57;;;3.30;;
17864;SDS011;9058;52.018;4.202;2022-09-09T04:20:28;8.18;;;3.20;;
17864;SDS011;9058;52.018;4.202;2022-09-09T04:22:55;7.65;;;3.50;;
17864;SDS011;9058;52.018;4.202;2022-09-09T04:25:21;6.65;;;3.78;;
17864;SDS011;9058;52.018;4.202;2022-09-09T04:27:47;5.53;;;3.35;;
17864;SDS011;9058;52.018;4.202;2022-09-09T04:30:19;6.40;;;3.03;;
17864;SDS011;9058;52.018;4.202;2022-09-09T04:32:46;6.82;;;3.05;;
17864;SDS011;9058;52.018;4.202;2022-09-09T04:35:12;6.07;;;2.70;;
17864;SDS011;9058;52.018;4.202;2022-09-09T04:37:40;6.18;;;3.22;;
17864;SDS011;9058;52.018;4.202;2022-09-09T04:40:07;8.57;;;3.08;;
17864;SDS011;9058;52.018;4.202;2022-09-09T04:42:34;8.82;;;2.58;;
17864;SDS011;9058;52.018;4.202;2022-09-09T04:45:01;5.43;;;2.60;;
17864;SDS011;9058;52.018;4.202;2022-09-09T04:47:27;6.05;;;2.80;;
17864;SDS011;9058;52.018;4.202;2022-09-09T04:49:54;6.78;;;3.03;;
17864;SDS011;9058;52.018;4.202;2022-09-09T04:52:21;8.40;;;2.90;;
17864;SDS011;9058;52.018;4.202;2022-09-09T04:54:50;7.15;;;2.95;;
17864;SDS011;9058;52.018;4.202;2022-09-09T04:57:19;7.68;;;3.47;;
17864;SDS011;9058;52.018;4.202;2022-09-09T04:59:45;10.32;;;3.22;;
17864;SDS011;9058;52.018;4.202;2022-09-09T05:02:13;10.38;;;3.50;;
17864;SDS011;9058;52.018;4.202;2022-09-09T05:04:39;7.72;;;3.22;;
17864;SDS011;9058;52.018;4.202;2022-09-09T05:07:06;7.97;;;3.40;;
17864;SDS011;9058;52.018;4.202;2022-09-09T05:09:33;11.05;;;3.67;;
17864;SDS011;9058;52.018;4.202;2022-09-09T05:12:01;8.48;;;3.28;;
17864;SDS011;9058;52.018;4.202;2022-09-09T05:14:29;10.15;;;3.40;;
17864;SDS011;9058;52.018;4.202;2022-09-09T05:16:55;8.70;;;3.42;;
17864;SDS011;9058;52.018;4.202;2022-09-09T05:19:23;8.52;;;3.30;;
17864;SDS011;9058;52.018;4.202;2022-09-09T05:21:49;8.75;;;3.40;;
17864;SDS011;9058;52.018;4.202;2022-09-09T05:24:16;7.93;;;3.35;;
17864;SDS011;9058;52.018;4.202;2022-09-09T05:26:42;12.25;;;3.55;;
17864;SDS011;9058;52.018;4.202;2022-09-09T05:29:12;6.38;;;3.83;;
17864;SDS011;9058;52.018;4.202;2022-09-09T05:31:38;10.35;;;3.80;;
17864;SDS011;9058;52.018;4.202;2022-09-09T05:34:06;16.40;;;4.38;;
17864;SDS011;9058;52.018;4.202;2022-09-09T05:36:33;12.30;;;3.95;;
17864;SDS011;9058;52.018;4.202;2022-09-09T05:39:00;8.27;;;3.78;;
17864;SDS011;9058;52.018;4.202;2022-09-09T05:41:26;11.25;;;4.03;;
17864;SDS011;9058;52.018;4.202;2022-09-09T05:43:53;11.68;;;3.45;;
17864;SDS011;9058;52.018;4.202;2022-09-09T05:46:23;10.70;;;3.47;;
17864;SDS011;9058;52.018;4.202;2022-09-09T05:48:50;7.15;;;3.35;;
17864;SDS011;9058;52.018;4.202;2022-09-09T05:51:17;10.43;;;3.40;;
17864;SDS011;9058;52.018;4.202;2022-09-09T05:53:46;7.22;;;2.70;;
17864;SDS011;9058;52.018;4.202;2022-09-09T05:56:14;9.57;;;3.20;;
17864;SDS011;9058;52.018;4.202;2022-09-09T05:58:41;9.55;;;3.05;;
17864;SDS011;9058;52.018;4.202;2022-09-09T06:01:09;7.45;;;3.08;;
17864;SDS011;9058;52.018;4.202;2022-09-09T06:03:38;10.07;;;3.30;;
17864;SDS011;9058;52.018;4.202;2022-09-09T06:06:05;7.60;;;3.75;;
17864;SDS011;9058;52.018;4.202;2022-09-09T06:08:32;12.15;;;3.90;;
17864;SDS011;9058;52.018;4.202;2022-09-09T06:11:00;10.30;;;2.95;;
17864;SDS011;9058;52.018;4.202;2022-09-09T06:13:28;8.05;;;3.00;;
17864;SDS011;9058;52.018;4.202;2022-09-09T06:15:54;8.95;;;3.72;;
17864;SDS011;9058;52.018;4.202;2022-09-09T06:18:21;8.00;;;3.35;;
17864;SDS011;9058;52.018;4.202;2022-09-09T06:20:54;7.13;;;3.03;;
17864;SDS011;9058;52.018;4.202;2022-09-09T06:23:20;9.07;;;3.80;;
17864;SDS011;9058;52.018;4.202;2022-09-09T06:25:47;12.70;;;3.50;;
17864;SDS011;9058;52.018;4.202;2022-09-09T06:28:14;8.40;;;3.90;;
17864;SDS011;9058;52.018;4.202;2022-09-09T06:30:40;11.27;;;3.90;;
17864;SDS011;9058;52.018;4.202;2022-09-09T06:33:07;8.43;;;4.07;;
17864;SDS011;9058;52.018;4.202;2022-09-09T06:35:34;12.90;;;4.70;;
17864;SDS011;9058;52.018;4.202;2022-09-09T06:38:03;12.40;;;5.28;;
17864;SDS011;9058;52.018;4.202;2022-09-09T06:40:30;10.27;;;4.95;;
17864;SDS011;9058;52.018;4.202;2022-09-09T06:42:59;10.25;;;5.22;;
17864;SDS011;9058;52.018;4.202;2022-09-09T06:45:25;7.40;;;5.10;;
17864;SDS011;9058;52.018;4.202;2022-09-09T06:47:54;8.52;;;5.05;;
17864;SDS011;9058;52.018;4.202;2022-09-09T06:50:20;7.90;;;5.53;;
17864;SDS011;9058;52.018;4.202;2022-09-09T06:52:47;14.68;;;5.90;;
17864;SDS011;9058;52.018;4.202;2022-09-09T06:55:16;8.50;;;4.80;;
17864;SDS011;9058;52.018;4.202;2022-09-09T06:57:43;7.13;;;5.38;;
17864;SDS011;9058;52.018;4.202;2022-09-09T07:00:09;11.07;;;6.00;;
17864;SDS011;9058;52.018;4.202;2022-09-09T07:02:37;9.55;;;5.47;;
17864;SDS011;9058;52.018;4.202;2022-09-09T07:05:04;9.45;;;5.30;;
17864;SDS011;9058;52.018;4.202;2022-09-09T07:07:31;9.77;;;5.53;;
17864;SDS011;9058;52.018;4.202;2022-09-09T07:09:58;12.07;;;5.85;;
17864;SDS011;9058;52.018;4.202;2022-09-09T07:12:26;15.90;;;5.70;;
17864;SDS011;9058;52.018;4.202;2022-09-09T07:14:56;11.48;;;5.63;;
17864;SDS011;9058;52.018;4.202;2022-09-09T07:17:22;11.63;;;5.75;;
17864;SDS011;9058;52.018;4.202;2022-09-09T07:19:48;14.70;;;5.65;;
17864;SDS011;9058;52.018;4.202;2022-09-09T07:22:15;8.75;;;5.78;;
17864;SDS011;9058;52.018;4.202;2022-09-09T07:24:42;12.32;;;5.45;;
17864;SDS011;9058;52.018;4.202;2022-09-09T07:27:10;11.38;;;5.82;;
17864;SDS011;9058;52.018;4.202;2022-09-09T07:29:37;8.88;;;5.18;;
17864;SDS011;9058;52.018;4.202;2022-09-09T07:32:04;10.13;;;5.70;;
17864;SDS011;9058;52.018;4.202;2022-09-09T07:34:30;12.50;;;5.72;;
17864;SDS011;9058;52.018;4.202;2022-09-09T07:36:57;12.25;;;6.07;;
17864;SDS011;9058;52.018;4.202;2022-09-09T07:39:23;11.80;;;5.47;;
17864;SDS011;9058;52.018;4.202;2022-09-09T07:41:49;12.30;;;5.95;;
17864;SDS011;9058;52.018;4.202;2022-09-09T07:44:17;7.03;;;5.35;;
17864;SDS011;9058;52.018;4.202;2022-09-09T07:46:46;11.13;;;5.20;;
17864;SDS011;9058;52.018;4.202;2022-09-09T07:49:13;13.05;;;5.22;;
17864;SDS011;9058;52.018;4.202;2022-09-09T07:51:40;7.07;;;4.57;;
17864;SDS011;9058;52.018;4.202;2022-09-09T07:54:07;13.40;;;5.82;;
17864;SDS011;9058;52.018;4.202;2022-09-09T07:56:35;11.88;;;5.10;;
17864;SDS011;9058;52.018;4.202;2022-09-09T07:59:02;9.70;;;5.32;;
17864;SDS011;9058;52.018;4.202;2022-09-09T08:01:30;13.15;;;5.60;;
17864;SDS011;9058;52.018;4.202;2022-09-09T08:03:59;8.02;;;4.90;;
17864;SDS011;9058;52.018;4.202;2022-09-09T08:06:26;8.30;;;4.68;;
17864;SDS011;9058;52.018;4.202;2022-09-09T08:08:53;10.90;;;4.93;;
17864;SDS011;9058;52.018;4.202;2022-09-09T08:11:20;11.15;;;4.65;;
17864;SDS011;9058;52.018;4.202;2022-09-09T08:13:48;8.88;;;4.78;;
17864;SDS011;9058;52.018;4.202;2022-09-09T08:16:16;11.10;;;5.35;;
17864;SDS011;9058;52.018;4.202;2022-09-09T08:18:42;9.77;;;4.68;;
17864;SDS011;9058;52.018;4.202;2022-09-09T08:21:12;8.95;;;4.55;;
17864;SDS011;9058;52.018;4.202;2022-09-09T08:23:39;10.15;;;4.03;;
17864;SDS011;9058;52.018;4.202;2022-09-09T08:26:08;9.93;;;4.50;;
17864;SDS011;9058;52.018;4.202;2022-09-09T08:28:35;9.57;;;4.43;;
17864;SDS011;9058;52.018;4.202;2022-09-09T08:31:05;7.82;;;4.72;;
17864;SDS011;9058;52.018;4.202;2022-09-09T08:33:33;8.63;;;4.40;;
17864;SDS011;9058;52.018;4.202;2022-09-09T08:35:59;10.05;;;4.22;;
17864;SDS011;9058;52.018;4.202;2022-09-09T08:38:28;8.10;;;4.47;;
17864;SDS011;9058;52.018;4.202;2022-09-09T08:40:55;8.80;;;4.32;;
17864;SDS011;9058;52.018;4.202;2022-09-09T08:43:26;8.30;;;4.85;;
17864;SDS011;9058;52.018;4.202;2022-09-09T08:45:55;7.22;;;4.55;;
17864;SDS011;9058;52.018;4.202;2022-09-09T08:48:31;9.52;;;5.00;;
17864;SDS011;9058;52.018;4.202;2022-09-09T08:51:02;11.38;;;5.20;;
17864;SDS011;9058;52.018;4.202;2022-09-09T08:53:36;10.20;;;4.65;;
17864;SDS011;9058;52.018;4.202;2022-09-09T08:56:08;8.02;;;4.38;;
17864;SDS011;9058;52.018;4.202;2022-09-09T08:58:39;7.38;;;4.15;;
17864;SDS011;9058;52.018;4.202;2022-09-09T09:01:16;9.25;;;4.65;;
17864;SDS011;9058;52.018;4.202;2022-09-09T09:03:47;8.57;;;4.57;;
17864;SDS011;9058;52.018;4.202;2022-09-09T09:06:19;6.22;;;4.18;;
17864;SDS011;9058;52.018;4.202;2022-09-09T09:08:54;8.75;;;4.72;;
17864;SDS011;9058;52.018;4.202;2022-09-09T09:11:23;10.52;;;4.97;;
17864;SDS011;9058;52.018;4.202;2022-09-09T09:13:51;9.27;;;5.13;;
17864;SDS011;9058;52.018;4.202;2022-09-09T09:16:21;9.23;;;5.50;;
17864;SDS011;9058;52.018;4.202;2022-09-09T09:18:48;10.25;;;5.47;;
17864;SDS011;9058;52.018;4.202;2022-09-09T09:21:17;10.55;;;5.78;;
17864;SDS011;9058;52.018;4.202;2022-09-09T09:23:47;13.70;;;6.55;;
17864;SDS011;9058;52.018;4.202;2022-09-09T09:26:17;10.52;;;5.75;;
17864;SDS011;9058;52.018;4.202;2022-09-09T09:28:44;8.13;;;5.55;;
17864;SDS011;9058;52.018;4.202;2022-09-09T09:31:11;8.32;;;5.15;;
17864;SDS011;9058;52.018;4.202;2022-09-09T09:33:42;9.40;;;4.43;;
17864;SDS011;9058;52.018;4.202;2022-09-09T09:36:11;10.50;;;4.90;;
17864;SDS011;9058;52.018;4.202;2022-09-09T09:38:50;5.15;;;4.30;;
17864;SDS011;9058;52.018;4.202;2022-09-09T09:41:18;6.65;;;4.68;;
17864;SDS011;9058;52.018;4.202;2022-09-09T09:43:55;8.27;;;4.97;;
17864;SDS011;9058;52.018;4.202;2022-09-09T09:46:22;8.27;;;4.60;;
17864;SDS011;9058;52.018;4.202;2022-09-09T09:48:56;9.77;;;5.10;;
17864;SDS011;9058;52.018;4.202;2022-09-09T09:51:22;9.70;;;5.53;;
17864;SDS011;9058;52.018;4.202;2022-09-09T09:53:49;8.88;;;5.43;;
17864;SDS011;9058;52.018;4.202;2022-09-09T09:56:25;8.80;;;6.18;;
17864;SDS011;9058;52.018;4.202;2022-09-09T09:58:52;10.68;;;6.32;;
17864;SDS011;9058;52.018;4.202;2022-09-09T10:01:20;8.32;;;6.05;;
17864;SDS011;9058;52.018;4.202;2022-09-09T10:03:49;12.43;;;6.10;;
17864;SDS011;9058;52.018;4.202;2022-09-09T10:06:16;8.38;;;5.55;;
17864;SDS011;9058;52.018;4.202;2022-09-09T10:08:44;11.48;;;6.20;;
17864;SDS011;9058;52.018;4.202;2022-09-09T10:11:17;8.50;;;5.60;;
17864;SDS011;9058;52.018;4.202;2022-09-09T10:13:53;13.07;;;5.75;;
17864;SDS011;9058;52.018;4.202;2022-09-09T10:16:26;7.15;;;5.50;;
17864;SDS011;9058;52.018;4.202;2022-09-09T10:18:58;7.38;;;5.85;;
17864;SDS011;9058;52.018;4.202;2022-09-09T10:21:30;11.88;;;5.80;;
17864;SDS011;9058;52.018;4.202;2022-09-09T10:24:02;8.32;;;5.72;;
17864;SDS011;9058;52.018;4.202;2022-09-09T10:26:36;9.32;;;6.30;;
17864;SDS011;9058;52.018;4.202;2022-09-09T10:29:10;9.23;;;6.38;;
17864;SDS011;9058;52.018;4.202;2022-09-09T10:31:43;11.07;;;4.95;;
17864;SDS011;9058;52.018;4.202;2022-09-09T10:34:13;8.40;;;3.83;;
17864;SDS011;9058;52.018;4.202;2022-09-09T10:36:43;8.55;;;3.80;;
17864;SDS011;9058;52.018;4.202;2022-09-09T10:39:15;7.30;;;3.30;;
17864;SDS011;9058;52.018;4.202;2022-09-09T10:41:45;6.20;;;3.58;;
17864;SDS011;9058;52.018;4.202;2022-09-09T10:44:28;7.60;;;2.90;;
17864;SDS011;9058;52.018;4.202;2022-09-09T10:47:05;5.53;;;2.40;;
17864;SDS011;9058;52.018;4.202;2022-09-09T10:49:42;7.65;;;2.95;;
17864;SDS011;9058;52.018;4.202;2022-09-09T10:52:14;6.20;;;2.63;;
17864;SDS011;9058;52.018;4.202;2022-09-09T10:54:44;5.28;;;2.25;;
17864;SDS011;9058;52.018;4.202;2022-09-09T10:57:16;4.82;;;2.25;;
17864;SDS011;9058;52.018;4.202;2022-09-09T10:59:46;8.90;;;2.35;;
17864;SDS011;9058;52.018;4.202;2022-09-09T11:02:15;3.80;;;2.17;;
17864;SDS011;9058;52.018;4.202;2022-09-09T11:04:45;5.78;;;2.60;;
17864;SDS011;9058;52.018;4.202;2022-09-09T11:07:16;4.25;;;1.92;;
17864;SDS011;9058;52.018;4.202;2022-09-09T11:09:49;3.60;;;2.33;;
17864;SDS011;9058;52.018;4.202;2022-09-09T11:12:20;7.28;;;2.80;;
17864;SDS011;9058;52.018;4.202;2022-09-09T11:14:51;7.80;;;2.88;;
17864;SDS011;9058;52.018;4.202;2022-09-09T11:17:22;5.28;;;2.30;;
17864;SDS011;9058;52.018;4.202;2022-09-09T11:19:50;7.45;;;2.97;;
17864;SDS011;9058;52.018;4.202;2022-09-09T11:22:19;5.28;;;2.17;;
17864;SDS011;9058;52.018;4.202;2022-09-09T11:24:47;3.20;;;2.10;;
17864;SDS011;9058;52.018;4.202;2022-09-09T11:27:16;5.05;;;2.38;;
17864;SDS011;9058;52.018;4.202;2022-09-09T11:30:13;5.22;;;3.10;;
17864;SDS011;9058;52.018;4.202;2022-09-09T11:32:45;9.52;;;3.67;;
17864;SDS011;9058;52.018;4.202;2022-09-09T11:35:21;6.15;;;3.28;;
17864;SDS011;9058;52.018;4.202;2022-09-09T11:37:57;9.00;;;3.67;;
17864;SDS011;9058;52.018;4.202;2022-09-09T11:40:28;8.82;;;3.50;;
17864;SDS011;9058;52.018;4.202;2022-09-09T11:43:01;4.65;;;3.22;;
17864;SDS011;9058;52.018;4.202;2022-09-09T11:45:30;4.40;;;2.55;;
17864;SDS011;9058;52.018;4.202;2022-09-09T11:47:58;5.25;;;2.30;;
17864;SDS011;9058;52.018;4.202;2022-09-09T11:50:29;4.50;;;2.05;;
17864;SDS011;9058;52.018;4.202;2022-09-09T11:53:04;4.47;;;2.38;;
17864;SDS011;9058;52.018;4.202;2022-09-09T11:55:31;4.30;;;2.22;;
17864;SDS011;9058;52.018;4.202;2022-09-09T11:57:58;4.35;;;2.70;;
17864;SDS011;9058;52.018;4.202;2022-09-09T12:00:33;7.10;;;2.55;;
17864;SDS011;9058;52.018;4.202;2022-09-09T12:03:00;4.40;;;2.25;;
17864;SDS011;9058;52.018;4.202;2022-09-09T12:05:35;5.75;;;2.80;;
17864;SDS011;9058;52.018;4.202;2022-09-09T12:08:02;7.93;;;3.28;;
17864;SDS011;9058;52.018;4.202;2022-09-09T12:10:30;6.63;;;2.90;;
17864;SDS011;9058;52.018;4.202;2022-09-09T12:13:07;7.03;;;3.38;;
17864;SDS011;9058;52.018;4.202;2022-09-09T12:15:36;5.85;;;3.63;;
17864;SDS011;9058;52.018;4.202;2022-09-09T12:18:14;7.10;;;3.45;;
17864;SDS011;9058;52.018;4.202;2022-09-09T12:20:41;5.47;;;2.80;;
17864;SDS011;9058;52.018;4.202;2022-09-09T12:23:19;7.90;;;4.00;;
17864;SDS011;9058;52.018;4.202;2022-09-09T12:25:53;6.40;;;3.55;;
17864;SDS011;9058;52.018;4.202;2022-09-09T12:28:22;7.72;;;4.03;;
17864;SDS011;9058;52.018;4.202;2022-09-09T12:30:55;6.72;;;4.43;;
17864;SDS011;9058;52.018;4.202;2022-09-09T12:33:22;6.80;;;4.40;;
17864;SDS011;9058;52.018;4.202;2022-09-09T12:35:53;8.38;;;3.78;;
17864;SDS011;9058;52.018;4.202;2022-09-09T12:38:23;5.50;;;3.35;;
17864;SDS011;9058;52.018;4.202;2022-09-09T12:40:57;7.35;;;3.47;;
17864;SDS011;9058;52.018;4.202;2022-09-09T12:43:26;8.18;;;3.20;;
17864;SDS011;9058;52.018;4.202;2022-09-09T12:45:54;3.88;;;2.55;;
17864;SDS011;9058;52.018;4.202;2022-09-09T12:48:25;6.47;;;3.35;;
17864;SDS011;9058;52.018;4.202;2022-09-09T12:50:53;5.95;;;3.38;;
17864;SDS011;9058;52.018;4.202;2022-09-09T12:53:21;6.00;;;3.60;;
17864;SDS011;9058;52.018;4.202;2022-09-09T12:55:49;8.10;;;3.70;;
17864;SDS011;9058;52.018;4.202;2022-09-09T12:58:17;10.43;;;3.67;;
17864;SDS011;9058;52.018;4.202;2022-09-09T13:00:48;6.07;;;3.25;;
17864;SDS011;9058;52.018;4.202;2022-09-09T13:03:17;6.55;;;3.30;;
17864;SDS011;9058;52.018;4.202;2022-09-09T13:05:45;7.18;;;3.35;;
17864;SDS011;9058;52.018;4.202;2022-09-09T13:08:13;5.90;;;3.35;;
17864;SDS011;9058;52.018;4.202;2022-09-09T13:10:40;4.93;;;3.67;;
17864;SDS011;9058;52.018;4.202;2022-09-09T13:13:11;7.28;;;3.60;;
17864;SDS011;9058;52.018;4.202;2022-09-09T13:15:39;8.20;;;3.40;;
17864;SDS011;9058;52.018;4.202;2022-09-09T13:18:10;9.40;;;2.50;;
17864;SDS011;9058;52.018;4.202;2022-09-09T13:20:39;5.78;;;2.15;;
17864;SDS011;9058;52.018;4.202;2022-09-09T13:23:11;6.38;;;2.03;;
17864;SDS011;9058;52.018;4.202;2022-09-09T13:25:38;3.67;;;1.30;;
17864;SDS011;9058;52.018;4.202;2022-09-09T13:28:18;6.07;;;1.95;;
17864;SDS011;9058;52.018;4.202;2022-09-09T13:30:54;8.27;;;2.15;;
17864;SDS011;9058;52.018;4.202;2022-09-09T13:33:24;8.30;;;1.92;;
17864;SDS011;9058;52.018;4.202;2022-09-09T13:35:57;6.70;;;1.92;;
17864;SDS011;9058;52.018;4.202;2022-09-09T13:38:25;8.15;;;2.85;;
17864;SDS011;9058;52.018;4.202;2022-09-09T13:40:52;11.38;;;2.17;;
17864;SDS011;9058;52.018;4.202;2022-09-09T13:43:21;12.30;;;2.67;;
17864;SDS011;9058;52.018;4.202;2022-09-09T13:45:52;8.38;;;2.63;;
17864;SDS011;9058;52.018;4.202;2022-09-09T13:48:19;12.25;;;2.70;;
17864;SDS011;9058;52.018;4.202;2022-09-09T13:50:53;13.15;;;3.30;;
17864;SDS011;9058;52.018;4.202;2022-09-09T13:53:20;12.52;;;3.80;;
17864;SDS011;9058;52.018;4.202;2022-09-09T13:55:47;10.93;;;2.63;;
17864;SDS011;9058;52.018;4.202;2022-09-09T13:58:14;10.55;;;3.60;;
17864;SDS011;9058;52.018;4.202;2022-09-09T14:00:42;13.65;;;2.80;;
17864;SDS011;9058;52.018;4.202;2022-09-09T14:03:09;10.20;;;2.28;;
17864;SDS011;9058;52.018;4.202;2022-09-09T14:05:36;6.05;;;1.52;;
17864;SDS011;9058;52.018;4.202;2022-09-09T14:08:03;4.45;;;1.73;;
17864;SDS011;9058;52.018;4.202;2022-09-09T14:10:31;8.63;;;1.83;;
17864;SDS011;9058;52.018;4.202;2022-09-09T14:12:57;6.65;;;1.60;;
17864;SDS011;9058;52.018;4.202;2022-09-09T14:15:25;7.68;;;2.38;;
17864;SDS011;9058;52.018;4.202;2022-09-09T14:17:52;2.13;;;1.15;;
17864;SDS011;9058;52.018;4.202;2022-09-09T14:20:18;5.70;;;1.30;;
17864;SDS011;9058;52.018;4.202;2022-09-09T14:22:45;5.43;;;1.42;;
17864;SDS011;9058;52.018;4.202;2022-09-09T14:25:11;5.65;;;1.50;;
17864;SDS011;9058;52.018;4.202;2022-09-09T14:27:41;7.10;;;1.40;;
17864;SDS011;9058;52.018;4.202;2022-09-09T14:30:08;6.95;;;1.42;;
17864;SDS011;9058;52.018;4.202;2022-09-09T14:32:35;7.85;;;1.92;;
17864;SDS011;9058;52.018;4.202;2022-09-09T14:35:01;6.07;;;1.58;;
17864;SDS011;9058;52.018;4.202;2022-09-09T14:37:28;6.88;;;1.73;;
17864;SDS011;9058;52.018;4.202;2022-09-09T14:39:56;5.50;;;1.60;;
17864;SDS011;9058;52.018;4.202;2022-09-09T14:42:22;8.20;;;1.67;;
17864;SDS011;9058;52.018;4.202;2022-09-09T14:44:51;7.82;;;1.90;;
17864;SDS011;9058;52.018;4.202;2022-09-09T14:47:18;10.90;;;2.10;;
17864;SDS011;9058;52.018;4.202;2022-09-09T14:49:46;4.63;;;2.15;;
17864;SDS011;9058;52.018;4.202;2022-09-09T14:52:15;5.75;;;1.63;;
17864;SDS011;9058;52.018;4.202;2022-09-09T14:54:53;5.15;;;2.00;;
17864;SDS011;9058;52.018;4.202;2022-09-09T14:57:22;7.78;;;2.17;;
17864;SDS011;9058;52.018;4.202;2022-09-09T14:59:51;7.63;;;1.77;;
17864;SDS011;9058;52.018;4.202;2022-09-09T15:02:19;3.95;;;1.55;;
17864;SDS011;9058;52.018;4.202;2022-09-09T15:04:46;4.38;;;1.70;;
17864;SDS011;9058;52.018;4.202;2022-09-09T15:07:15;6.22;;;1.90;;